sensor_id;sensor_type;location;lat;lon;timestamp;P1;durP1;ratioP1;P2;durP2;ratioP2
50429;SDS011;36359;41.556;-8.418;2023-11-19T00:00:50;139.25;;;53.05;;
50429;SDS011;36359;41.556;-8.418;2023-11-19T00:03:16;107.70;;;53.72;;
50429;SDS011;36359;41.556;-8.418;2023-11-19T00:05:43;119.18;;;53.97;;
50429;SDS011;36359;41.556;-8.418;2023-11-19T00:08:09;126.93;;;54.90;;
50429;SDS011;36359;41.556;-8.418;2023-11-19T00:10:35;83.55;;;49.30;;
50429;SDS011;36359;41.556;-8.418;2023-11-19T00:13:01;101.65;;;54.30;;
50429;SDS011;36359;41.556;-8.418;2023-11-19T00:15:28;131.07;;;49.05;;
50429;SDS011;36359;41.556;-8.418;2023-11-19T00:17:53;53.13;;;45.78;;
50429;SDS011;36359;41.556;-8.418;2023-11-19T00:20:20;56.80;;;47.45;;
50429;SDS011;36359;41.556;-8.418;2023-11-19T00:22:48;95.30;;;50.50;;
50429;SDS011;36359;41.556;-8.418;2023-11-19T00:25:16;62.15;;;49.75;;
50429;SDS011;36359;41.556;-8.418;2023-11-19T00:27:43;83.00;;;52.53;;
50429;SDS011;36359;41.556;-8.418;2023-11-19T00:30:12;75.13;;;51.72;;
50429;SDS011;36359;41.556;-8.418;2023-11-19T00:32:39;83.55;;;54.70;;
50429;SDS011;36359;41.556;-8.418;2023-11-19T00:35:06;91.28;;;55.92;;
50429;SDS011;36359;41.556;-8.418;2023-11-19T00:37:32;83.03;;;56.78;;
50429;SDS011;36359;41.556;-8.418;2023-11-19T00:39:58;103.15;;;59.92;;
50429;SDS011;36359;41.556;-8.418;2023-11-19T00:42:24;68.00;;;54.95;;
50429;SDS011;36359;41.556;-8.418;2023-11-19T00:44:50;91.78;;;57.80;;
50429;SDS011;36359;41.556;-8.418;2023-11-19T00:47:17;86.15;;;55.30;;
50429;SDS011;36359;41.556;-8.418;2023-11-19T00:49:46;69.60;;;50.35;;
50429;SDS011;36359;41.556;-8.418;2023-11-19T00:52:14;107.70;;;50.70;;
50429;SDS011;36359;41.556;-8.418;2023-11-19T00:54:41;60.50;;;45.20;;
50429;SDS011;36359;41.556;-8.418;2023-11-19T00:57:07;54.63;;;43.35;;
50429;SDS011;36359;41.556;-8.418;2023-11-19T00:59:33;53.92;;;41.30;;
50429;SDS011;36359;41.556;-8.418;2023-11-19T01:01:59;61.42;;;38.75;;
50429;SDS011;36359;41.556;-8.418;2023-11-19T01:04:34;72.70;;;37.63;;
50429;SDS011;36359;41.556;-8.418;2023-11-19T01:07:01;56.70;;;36.20;;
50429;SDS011;36359;41.556;-8.418;2023-11-19T01:09:32;82.03;;;37.35;;
50429;SDS011;36359;41.556;-8.418;2023-11-19T01:11:59;107.53;;;40.47;;
50429;SDS011;36359;41.556;-8.418;2023-11-19T01:14:26;73.40;;;38.90;;
50429;SDS011;36359;41.556;-8.418;2023-11-19T01:16:52;88.15;;;42.03;;
50429;SDS011;36359;41.556;-8.418;2023-11-19T01:19:19;91.10;;;43.15;;
50429;SDS011;36359;41.556;-8.418;2023-11-19T01:21:49;112.05;;;41.22;;
50429;SDS011;36359;41.556;-8.418;2023-11-19T01:24:15;53.88;;;33.90;;
50429;SDS011;36359;41.556;-8.418;2023-11-19T01:26:41;48.80;;;37.75;;
50429;SDS011;36359;41.556;-8.418;2023-11-19T01:29:12;38.30;;;31.13;;
50429;SDS011;36359;41.556;-8.418;2023-11-19T01:31:41;38.00;;;31.35;;
50429;SDS011;36359;41.556;-8.418;2023-11-19T01:34:08;40.17;;;32.95;;
50429;SDS011;36359;41.556;-8.418;2023-11-19T01:36:34;92.03;;;36.35;;
50429;SDS011;36359;41.556;-8.418;2023-11-19T01:39:00;58.28;;;34.70;;
50429;SDS011;36359;41.556;-8.418;2023-11-19T01:41:26;47.97;;;32.65;;
50429;SDS011;36359;41.556;-8.418;2023-11-19T01:43:52;38.35;;;32.78;;
50429;SDS011;36359;41.556;-8.418;2023-11-19T01:46:18;36.92;;;32.17;;
50429;SDS011;36359;41.556;-8.418;2023-11-19T01:48:44;41.13;;;33.45;;
50429;SDS011;36359;41.556;-8.418;2023-11-19T01:51:12;37.90;;;31.45;;
50429;SDS011;36359;41.556;-8.418;2023-11-19T01:53:41;40.50;;;33.22;;
50429;SDS011;36359;41.556;-8.418;2023-11-19T01:56:09;63.03;;;33.97;;
50429;SDS011;36359;41.556;-8.418;2023-11-19T01:58:37;113.03;;;39.78;;
50429;SDS011;36359;41.556;-8.418;2023-11-19T02:01:07;70.50;;;38.97;;
50429;SDS011;36359;41.556;-8.418;2023-11-19T02:03:35;111.15;;;41.90;;
50429;SDS011;36359;41.556;-8.418;2023-11-19T02:06:00;53.47;;;36.65;;
50429;SDS011;36359;41.556;-8.418;2023-11-19T02:08:26;118.60;;;42.70;;
50429;SDS011;36359;41.556;-8.418;2023-11-19T02:10:52;42.70;;;36.80;;
50429;SDS011;36359;41.556;-8.418;2023-11-19T02:13:22;86.55;;;42.00;;
50429;SDS011;36359;41.556;-8.418;2023-11-19T02:15:50;96.85;;;44.70;;
50429;SDS011;36359;41.556;-8.418;2023-11-19T02:18:26;52.15;;;43.42;;
50429;SDS011;36359;41.556;-8.418;2023-11-19T02:20:54;84.05;;;41.70;;
50429;SDS011;36359;41.556;-8.418;2023-11-19T02:23:21;73.97;;;38.85;;
50429;SDS011;36359;41.556;-8.418;2023-11-19T02:25:48;110.97;;;42.42;;
50429;SDS011;36359;41.556;-8.418;2023-11-19T02:28:27;63.80;;;38.67;;
50429;SDS011;36359;41.556;-8.418;2023-11-19T02:30:53;104.00;;;41.05;;
50429;SDS011;36359;41.556;-8.418;2023-11-19T02:33:19;57.83;;;38.25;;
50429;SDS011;36359;41.556;-8.418;2023-11-19T02:35:44;41.65;;;34.42;;
50429;SDS011;36359;41.556;-8.418;2023-11-19T02:38:10;41.75;;;33.75;;
50429;SDS011;36359;41.556;-8.418;2023-11-19T02:40:36;44.03;;;34.65;;
50429;SDS011;36359;41.556;-8.418;2023-11-19T02:43:02;73.82;;;35.05;;
50429;SDS011;36359;41.556;-8.418;2023-11-19T02:45:30;54.10;;;35.13;;
50429;SDS011;36359;41.556;-8.418;2023-11-19T02:47:56;43.17;;;31.50;;
50429;SDS011;36359;41.556;-8.418;2023-11-19T02:50:22;84.50;;;30.65;;
50429;SDS011;36359;41.556;-8.418;2023-11-19T02:52:54;65.68;;;29.23;;
50429;SDS011;36359;41.556;-8.418;2023-11-19T02:57:49;51.33;;;30.00;;
50429;SDS011;36359;41.556;-8.418;2023-11-19T03:00:18;59.67;;;30.52;;
50429;SDS011;36359;41.556;-8.418;2023-11-19T03:02:49;74.55;;;31.45;;
50429;SDS011;36359;41.556;-8.418;2023-11-19T03:05:24;89.07;;;32.13;;
50429;SDS011;36359;41.556;-8.418;2023-11-19T03:07:50;142.35;;;32.97;;
50429;SDS011;36359;41.556;-8.418;2023-11-19T03:10:17;74.53;;;31.20;;
50429;SDS011;36359;41.556;-8.418;2023-11-19T03:12:42;39.95;;;26.75;;
50429;SDS011;36359;41.556;-8.418;2023-11-19T03:15:09;36.50;;;26.98;;
50429;SDS011;36359;41.556;-8.418;2023-11-19T03:17:38;63.80;;;30.77;;
50429;SDS011;36359;41.556;-8.418;2023-11-19T03:20:05;86.97;;;28.77;;
50429;SDS011;36359;41.556;-8.418;2023-11-19T03:22:34;99.50;;;30.65;;
50429;SDS011;36359;41.556;-8.418;2023-11-19T03:25:02;75.20;;;29.15;;
50429;SDS011;36359;41.556;-8.418;2023-11-19T03:27:28;64.53;;;29.88;;
50429;SDS011;36359;41.556;-8.418;2023-11-19T03:29:53;93.13;;;30.23;;
50429;SDS011;36359;41.556;-8.418;2023-11-19T03:32:19;40.92;;;27.88;;
50429;SDS011;36359;41.556;-8.418;2023-11-19T03:34:45;110.32;;;28.60;;
50429;SDS011;36359;41.556;-8.418;2023-11-19T03:37:11;65.65;;;26.45;;
50429;SDS011;36359;41.556;-8.418;2023-11-19T03:39:37;49.33;;;26.88;;
50429;SDS011;36359;41.556;-8.418;2023-11-19T03:42:02;34.00;;;22.30;;
50429;SDS011;36359;41.556;-8.418;2023-11-19T03:44:28;33.53;;;21.05;;
50429;SDS011;36359;41.556;-8.418;2023-11-19T03:46:55;44.00;;;21.75;;
50429;SDS011;36359;41.556;-8.418;2023-11-19T03:49:20;35.83;;;22.13;;
50429;SDS011;36359;41.556;-8.418;2023-11-19T03:51:46;37.63;;;22.55;;
50429;SDS011;36359;41.556;-8.418;2023-11-19T03:54:12;27.35;;;20.85;;
50429;SDS011;36359;41.556;-8.418;2023-11-19T03:56:37;28.33;;;20.15;;
50429;SDS011;36359;41.556;-8.418;2023-11-19T03:59:03;36.60;;;19.98;;
50429;SDS011;36359;41.556;-8.418;2023-11-19T04:01:29;25.58;;;19.25;;
50429;SDS011;36359;41.556;-8.418;2023-11-19T04:03:58;30.25;;;18.50;;
50429;SDS011;36359;41.556;-8.418;2023-11-19T04:06:24;29.90;;;18.25;;
50429;SDS011;36359;41.556;-8.418;2023-11-19T04:08:51;31.75;;;17.17;;
50429;SDS011;36359;41.556;-8.418;2023-11-19T04:11:17;21.27;;;17.73;;
50429;SDS011;36359;41.556;-8.418;2023-11-19T04:13:42;23.63;;;17.77;;
50429;SDS011;36359;41.556;-8.418;2023-11-19T04:16:09;22.77;;;17.30;;
50429;SDS011;36359;41.556;-8.418;2023-11-19T04:18:34;21.00;;;16.85;;
50429;SDS011;36359;41.556;-8.418;2023-11-19T04:21:01;22.17;;;18.95;;
50429;SDS011;36359;41.556;-8.418;2023-11-19T04:23:26;32.28;;;21.25;;
50429;SDS011;36359;41.556;-8.418;2023-11-19T04:25:52;34.92;;;23.73;;
50429;SDS011;36359;41.556;-8.418;2023-11-19T04:28:19;28.13;;;21.90;;
50429;SDS011;36359;41.556;-8.418;2023-11-19T04:30:45;29.60;;;22.95;;
50429;SDS011;36359;41.556;-8.418;2023-11-19T04:33:10;58.25;;;26.25;;
50429;SDS011;36359;41.556;-8.418;2023-11-19T04:35:36;51.70;;;27.23;;
50429;SDS011;36359;41.556;-8.418;2023-11-19T04:38:02;29.17;;;22.60;;
50429;SDS011;36359;41.556;-8.418;2023-11-19T04:40:28;60.90;;;25.80;;
50429;SDS011;36359;41.556;-8.418;2023-11-19T04:42:53;46.28;;;25.00;;
50429;SDS011;36359;41.556;-8.418;2023-11-19T04:45:19;52.42;;;22.77;;
50429;SDS011;36359;41.556;-8.418;2023-11-19T04:47:45;34.53;;;23.63;;
50429;SDS011;36359;41.556;-8.418;2023-11-19T04:50:11;38.70;;;22.42;;
50429;SDS011;36359;41.556;-8.418;2023-11-19T04:52:37;26.10;;;22.23;;
50429;SDS011;36359;41.556;-8.418;2023-11-19T04:55:05;47.47;;;22.63;;
50429;SDS011;36359;41.556;-8.418;2023-11-19T04:57:31;64.93;;;21.73;;
50429;SDS011;36359;41.556;-8.418;2023-11-19T04:59:58;51.50;;;21.25;;
50429;SDS011;36359;41.556;-8.418;2023-11-19T05:02:24;34.63;;;20.20;;
50429;SDS011;36359;41.556;-8.418;2023-11-19T05:04:50;28.55;;;18.38;;
50429;SDS011;36359;41.556;-8.418;2023-11-19T05:07:15;28.92;;;16.17;;
50429;SDS011;36359;41.556;-8.418;2023-11-19T05:09:41;30.98;;;16.55;;
50429;SDS011;36359;41.556;-8.418;2023-11-19T05:12:08;21.73;;;17.05;;
50429;SDS011;36359;41.556;-8.418;2023-11-19T05:14:37;28.33;;;16.33;;
50429;SDS011;36359;41.556;-8.418;2023-11-19T05:17:03;21.00;;;15.68;;
50429;SDS011;36359;41.556;-8.418;2023-11-19T05:19:29;50.60;;;16.05;;
50429;SDS011;36359;41.556;-8.418;2023-11-19T05:21:55;48.67;;;15.38;;
50429;SDS011;36359;41.556;-8.418;2023-11-19T05:24:20;50.20;;;16.52;;
50429;SDS011;36359;41.556;-8.418;2023-11-19T05:26:46;34.65;;;16.27;;
50429;SDS011;36359;41.556;-8.418;2023-11-19T05:29:12;37.00;;;16.50;;
50429;SDS011;36359;41.556;-8.418;2023-11-19T05:31:38;29.38;;;15.63;;
50429;SDS011;36359;41.556;-8.418;2023-11-19T05:34:04;49.92;;;15.98;;
50429;SDS011;36359;41.556;-8.418;2023-11-19T05:36:29;32.38;;;15.30;;
50429;SDS011;36359;41.556;-8.418;2023-11-19T05:38:55;45.28;;;16.45;;
50429;SDS011;36359;41.556;-8.418;2023-11-19T05:41:21;18.17;;;15.52;;
50429;SDS011;36359;41.556;-8.418;2023-11-19T05:43:47;27.83;;;14.90;;
50429;SDS011;36359;41.556;-8.418;2023-11-19T05:46:12;17.13;;;14.20;;
50429;SDS011;36359;41.556;-8.418;2023-11-19T05:48:38;26.00;;;13.52;;
50429;SDS011;36359;41.556;-8.418;2023-11-19T05:51:04;16.02;;;13.20;;
50429;SDS011;36359;41.556;-8.418;2023-11-19T05:53:31;31.80;;;13.20;;
50429;SDS011;36359;41.556;-8.418;2023-11-19T05:55:57;20.45;;;12.43;;
50429;SDS011;36359;41.556;-8.418;2023-11-19T05:58:26;14.25;;;11.20;;
50429;SDS011;36359;41.556;-8.418;2023-11-19T06:00:54;25.08;;;11.10;;
50429;SDS011;36359;41.556;-8.418;2023-11-19T06:03:21;21.83;;;11.50;;
50429;SDS011;36359;41.556;-8.418;2023-11-19T06:05:47;16.10;;;12.00;;
50429;SDS011;36359;41.556;-8.418;2023-11-19T06:08:13;36.38;;;12.77;;
50429;SDS011;36359;41.556;-8.418;2023-11-19T06:10:43;15.45;;;12.40;;
50429;SDS011;36359;41.556;-8.418;2023-11-19T06:13:11;26.50;;;12.40;;
50429;SDS011;36359;41.556;-8.418;2023-11-19T06:15:40;25.58;;;12.85;;
50429;SDS011;36359;41.556;-8.418;2023-11-19T06:18:07;13.38;;;11.15;;
50429;SDS011;36359;41.556;-8.418;2023-11-19T06:20:33;13.77;;;11.68;;
50429;SDS011;36359;41.556;-8.418;2023-11-19T06:23:00;16.50;;;10.63;;
50429;SDS011;36359;41.556;-8.418;2023-11-19T06:25:25;14.13;;;10.15;;
50429;SDS011;36359;41.556;-8.418;2023-11-19T06:27:52;15.75;;;8.77;;
50429;SDS011;36359;41.556;-8.418;2023-11-19T06:30:18;10.30;;;7.97;;
50429;SDS011;36359;41.556;-8.418;2023-11-19T06:32:45;13.90;;;9.98;;
50429;SDS011;36359;41.556;-8.418;2023-11-19T06:35:10;12.23;;;8.63;;
50429;SDS011;36359;41.556;-8.418;2023-11-19T06:37:39;25.08;;;9.23;;
50429;SDS011;36359;41.556;-8.418;2023-11-19T06:40:06;20.05;;;9.30;;
50429;SDS011;36359;41.556;-8.418;2023-11-19T06:42:34;14.73;;;9.00;;
50429;SDS011;36359;41.556;-8.418;2023-11-19T06:45:00;16.25;;;9.30;;
50429;SDS011;36359;41.556;-8.418;2023-11-19T06:47:27;23.45;;;10.25;;
50429;SDS011;36359;41.556;-8.418;2023-11-19T06:49:53;21.92;;;9.52;;
50429;SDS011;36359;41.556;-8.418;2023-11-19T06:52:19;34.75;;;10.68;;
50429;SDS011;36359;41.556;-8.418;2023-11-19T06:54:45;11.65;;;8.73;;
50429;SDS011;36359;41.556;-8.418;2023-11-19T06:57:12;18.00;;;7.93;;
50429;SDS011;36359;41.556;-8.418;2023-11-19T06:59:38;39.38;;;9.65;;
50429;SDS011;36359;41.556;-8.418;2023-11-19T07:02:04;14.30;;;9.65;;
50429;SDS011;36359;41.556;-8.418;2023-11-19T07:04:30;11.73;;;9.35;;
50429;SDS011;36359;41.556;-8.418;2023-11-19T07:06:56;56.67;;;9.82;;
50429;SDS011;36359;41.556;-8.418;2023-11-19T07:09:22;110.88;;;10.80;;
50429;SDS011;36359;41.556;-8.418;2023-11-19T07:11:48;10.10;;;8.43;;
50429;SDS011;36359;41.556;-8.418;2023-11-19T07:14:17;12.00;;;9.00;;
50429;SDS011;36359;41.556;-8.418;2023-11-19T07:16:43;11.10;;;8.80;;
50429;SDS011;36359;41.556;-8.418;2023-11-19T07:19:09;20.33;;;9.15;;
50429;SDS011;36359;41.556;-8.418;2023-11-19T07:21:35;15.52;;;8.88;;
50429;SDS011;36359;41.556;-8.418;2023-11-19T07:24:04;47.75;;;8.27;;
50429;SDS011;36359;41.556;-8.418;2023-11-19T07:26:31;14.93;;;8.43;;
50429;SDS011;36359;41.556;-8.418;2023-11-19T07:28:57;27.65;;;8.82;;
50429;SDS011;36359;41.556;-8.418;2023-11-19T07:31:23;56.13;;;7.63;;
50429;SDS011;36359;41.556;-8.418;2023-11-19T07:33:49;20.35;;;7.97;;
50429;SDS011;36359;41.556;-8.418;2023-11-19T07:36:15;14.45;;;6.95;;
50429;SDS011;36359;41.556;-8.418;2023-11-19T07:38:41;74.65;;;8.80;;
50429;SDS011;36359;41.556;-8.418;2023-11-19T07:41:08;76.72;;;8.68;;
50429;SDS011;36359;41.556;-8.418;2023-11-19T07:43:43;18.73;;;5.85;;
50429;SDS011;36359;41.556;-8.418;2023-11-19T07:46:13;14.15;;;6.60;;
50429;SDS011;36359;41.556;-8.418;2023-11-19T07:48:39;159.73;;;10.00;;
50429;SDS011;36359;41.556;-8.418;2023-11-19T07:51:06;18.50;;;6.03;;
50429;SDS011;36359;41.556;-8.418;2023-11-19T07:53:32;55.67;;;9.02;;
50429;SDS011;36359;41.556;-8.418;2023-11-19T07:58:28;18.95;;;7.20;;
50429;SDS011;36359;41.556;-8.418;2023-11-19T08:00:54;63.42;;;8.02;;
50429;SDS011;36359;41.556;-8.418;2023-11-19T08:03:19;58.85;;;8.43;;
50429;SDS011;36359;41.556;-8.418;2023-11-19T08:05:48;28.05;;;6.80;;
50429;SDS011;36359;41.556;-8.418;2023-11-19T08:08:14;23.70;;;6.88;;
50429;SDS011;36359;41.556;-8.418;2023-11-19T08:10:40;34.17;;;7.13;;
50429;SDS011;36359;41.556;-8.418;2023-11-19T08:13:05;48.80;;;7.80;;
50429;SDS011;36359;41.556;-8.418;2023-11-19T08:15:32;50.60;;;6.75;;
50429;SDS011;36359;41.556;-8.418;2023-11-19T08:17:58;23.20;;;6.03;;
50429;SDS011;36359;41.556;-8.418;2023-11-19T08:20:24;22.52;;;5.85;;
50429;SDS011;36359;41.556;-8.418;2023-11-19T08:22:49;28.80;;;6.05;;
50429;SDS011;36359;41.556;-8.418;2023-11-19T08:25:15;19.67;;;6.10;;
50429;SDS011;36359;41.556;-8.418;2023-11-19T08:27:41;7.68;;;6.05;;
50429;SDS011;36359;41.556;-8.418;2023-11-19T08:30:08;10.68;;;5.72;;
50429;SDS011;36359;41.556;-8.418;2023-11-19T08:32:34;7.57;;;5.60;;
50429;SDS011;36359;41.556;-8.418;2023-11-19T08:35:01;8.70;;;5.93;;
50429;SDS011;36359;41.556;-8.418;2023-11-19T08:37:27;20.25;;;5.78;;
50429;SDS011;36359;41.556;-8.418;2023-11-19T08:39:53;20.60;;;6.32;;
50429;SDS011;36359;41.556;-8.418;2023-11-19T08:42:18;10.82;;;6.10;;
50429;SDS011;36359;41.556;-8.418;2023-11-19T08:44:48;7.45;;;6.53;;
50429;SDS011;36359;41.556;-8.418;2023-11-19T08:47:16;10.40;;;6.32;;
50429;SDS011;36359;41.556;-8.418;2023-11-19T08:49:45;16.30;;;4.85;;
50429;SDS011;36359;41.556;-8.418;2023-11-19T08:52:11;8.57;;;5.18;;
50429;SDS011;36359;41.556;-8.418;2023-11-19T08:54:37;23.45;;;5.70;;
50429;SDS011;36359;41.556;-8.418;2023-11-19T08:57:03;9.02;;;4.95;;
50429;SDS011;36359;41.556;-8.418;2023-11-19T08:59:29;40.90;;;5.07;;
50429;SDS011;36359;41.556;-8.418;2023-11-19T09:01:55;11.35;;;4.65;;
50429;SDS011;36359;41.556;-8.418;2023-11-19T09:04:21;11.38;;;5.35;;
50429;SDS011;36359;41.556;-8.418;2023-11-19T09:06:50;7.25;;;4.90;;
50429;SDS011;36359;41.556;-8.418;2023-11-19T09:09:16;6.80;;;5.18;;
50429;SDS011;36359;41.556;-8.418;2023-11-19T09:11:41;19.50;;;5.00;;
50429;SDS011;36359;41.556;-8.418;2023-11-19T09:14:07;17.30;;;5.18;;
50429;SDS011;36359;41.556;-8.418;2023-11-19T09:16:33;6.07;;;4.53;;
50429;SDS011;36359;41.556;-8.418;2023-11-19T09:18:59;18.83;;;5.00;;
50429;SDS011;36359;41.556;-8.418;2023-11-19T09:21:26;8.05;;;5.20;;
50429;SDS011;36359;41.556;-8.418;2023-11-19T09:23:51;5.85;;;5.15;;
50429;SDS011;36359;41.556;-8.418;2023-11-19T09:26:19;4.97;;;4.47;;
50429;SDS011;36359;41.556;-8.418;2023-11-19T09:28:44;19.15;;;4.68;;
50429;SDS011;36359;41.556;-8.418;2023-11-19T09:31:17;18.40;;;5.40;;
50429;SDS011;36359;41.556;-8.418;2023-11-19T09:33:43;5.00;;;4.50;;
50429;SDS011;36359;41.556;-8.418;2023-11-19T09:36:10;11.20;;;5.25;;
50429;SDS011;36359;41.556;-8.418;2023-11-19T09:38:39;28.63;;;5.30;;
50429;SDS011;36359;41.556;-8.418;2023-11-19T09:41:05;41.88;;;5.20;;
50429;SDS011;36359;41.556;-8.418;2023-11-19T09:43:35;13.27;;;5.03;;
50429;SDS011;36359;41.556;-8.418;2023-11-19T09:46:05;5.20;;;4.15;;
50429;SDS011;36359;41.556;-8.418;2023-11-19T09:48:34;9.70;;;5.07;;
50429;SDS011;36359;41.556;-8.418;2023-11-19T09:51:02;11.18;;;5.30;;
50429;SDS011;36359;41.556;-8.418;2023-11-19T09:53:29;7.80;;;5.10;;
50429;SDS011;36359;41.556;-8.418;2023-11-19T09:55:55;6.05;;;5.45;;
50429;SDS011;36359;41.556;-8.418;2023-11-19T09:58:22;20.25;;;6.05;;
50429;SDS011;36359;41.556;-8.418;2023-11-19T10:00:49;37.75;;;6.30;;
50429;SDS011;36359;41.556;-8.418;2023-11-19T10:03:17;14.25;;;4.88;;
50429;SDS011;36359;41.556;-8.418;2023-11-19T10:05:43;11.60;;;4.75;;
50429;SDS011;36359;41.556;-8.418;2023-11-19T10:08:09;8.68;;;5.70;;
50429;SDS011;36359;41.556;-8.418;2023-11-19T10:10:36;7.40;;;5.20;;
50429;SDS011;36359;41.556;-8.418;2023-11-19T10:13:02;12.43;;;6.28;;
50429;SDS011;36359;41.556;-8.418;2023-11-19T10:15:28;7.80;;;5.72;;
50429;SDS011;36359;41.556;-8.418;2023-11-19T10:18:00;10.45;;;6.05;;
50429;SDS011;36359;41.556;-8.418;2023-11-19T10:20:26;9.93;;;6.65;;
50429;SDS011;36359;41.556;-8.418;2023-11-19T10:22:53;7.63;;;6.82;;
50429;SDS011;36359;41.556;-8.418;2023-11-19T10:25:29;8.15;;;7.32;;
50429;SDS011;36359;41.556;-8.418;2023-11-19T10:27:56;9.02;;;7.15;;
50429;SDS011;36359;41.556;-8.418;2023-11-19T10:35:35;13.63;;;7.80;;
50429;SDS011;36359;41.556;-8.418;2023-11-19T10:38:14;8.80;;;6.65;;
50429;SDS011;36359;41.556;-8.418;2023-11-19T10:40:41;12.13;;;8.15;;
50429;SDS011;36359;41.556;-8.418;2023-11-19T10:43:07;9.48;;;7.38;;
50429;SDS011;36359;41.556;-8.418;2023-11-19T10:45:34;13.95;;;8.93;;
50429;SDS011;36359;41.556;-8.418;2023-11-19T10:48:01;16.10;;;8.48;;
50429;SDS011;36359;41.556;-8.418;2023-11-19T10:50:28;25.98;;;8.88;;
50429;SDS011;36359;41.556;-8.418;2023-11-19T10:52:57;11.35;;;8.40;;
50429;SDS011;36359;41.556;-8.418;2023-11-19T10:55:29;9.63;;;8.57;;
50429;SDS011;36359;41.556;-8.418;2023-11-19T10:57:58;12.85;;;9.07;;
50429;SDS011;36359;41.556;-8.418;2023-11-19T11:00:39;12.00;;;9.20;;
50429;SDS011;36359;41.556;-8.418;2023-11-19T11:03:22;15.65;;;10.45;;
50429;SDS011;36359;41.556;-8.418;2023-11-19T11:05:51;11.57;;;9.00;;
50429;SDS011;36359;41.556;-8.418;2023-11-19T11:08:17;12.52;;;9.40;;
50429;SDS011;36359;41.556;-8.418;2023-11-19T11:10:45;13.57;;;9.90;;
50429;SDS011;36359;41.556;-8.418;2023-11-19T11:13:17;29.08;;;11.85;;
50429;SDS011;36359;41.556;-8.418;2023-11-19T11:15:46;29.48;;;12.05;;
50429;SDS011;36359;41.556;-8.418;2023-11-19T11:18:13;16.73;;;10.68;;
50429;SDS011;36359;41.556;-8.418;2023-11-19T11:20:39;16.48;;;11.50;;
50429;SDS011;36359;41.556;-8.418;2023-11-19T11:28:35;8.63;;;7.03;;
50429;SDS011;36359;41.556;-8.418;2023-11-19T11:31:37;8.40;;;7.50;;
50429;SDS011;36359;41.556;-8.418;2023-11-19T11:39:33;11.63;;;9.40;;
50429;SDS011;36359;41.556;-8.418;2023-11-19T11:50:20;11.40;;;10.30;;
50429;SDS011;36359;41.556;-8.418;2023-11-19T11:55:36;12.38;;;10.82;;
50429;SDS011;36359;41.556;-8.418;2023-11-19T11:58:20;11.88;;;10.68;;
50429;SDS011;36359;41.556;-8.418;2023-11-19T12:00:48;12.60;;;10.67;;
50429;SDS011;36359;41.556;-8.418;2023-11-19T12:03:14;12.23;;;10.93;;
50429;SDS011;36359;41.556;-8.418;2023-11-19T12:05:40;12.02;;;10.77;;
50429;SDS011;36359;41.556;-8.418;2023-11-19T12:08:10;10.55;;;9.45;;
50429;SDS011;36359;41.556;-8.418;2023-11-19T12:10:46;16.85;;;15.07;;
50429;SDS011;36359;41.556;-8.418;2023-11-19T12:13:14;14.05;;;11.70;;
50429;SDS011;36359;41.556;-8.418;2023-11-19T12:18:30;16.63;;;14.77;;
50429;SDS011;36359;41.556;-8.418;2023-11-19T12:20:57;16.15;;;14.13;;
50429;SDS011;36359;41.556;-8.418;2023-11-19T12:23:30;16.13;;;14.43;;
50429;SDS011;36359;41.556;-8.418;2023-11-19T12:25:56;13.45;;;11.90;;
50429;SDS011;36359;41.556;-8.418;2023-11-19T12:28:23;15.55;;;14.02;;
50429;SDS011;36359;41.556;-8.418;2023-11-19T12:30:51;19.83;;;17.55;;
50429;SDS011;36359;41.556;-8.418;2023-11-19T12:33:18;18.52;;;16.42;;
50429;SDS011;36359;41.556;-8.418;2023-11-19T12:35:45;20.50;;;17.27;;
50429;SDS011;36359;41.556;-8.418;2023-11-19T12:38:22;16.10;;;14.40;;
50429;SDS011;36359;41.556;-8.418;2023-11-19T12:41:05;18.35;;;13.68;;
50429;SDS011;36359;41.556;-8.418;2023-11-19T12:43:37;18.75;;;15.77;;
50429;SDS011;36359;41.556;-8.418;2023-11-19T12:46:18;13.80;;;11.98;;
50429;SDS011;36359;41.556;-8.418;2023-11-19T12:48:45;13.18;;;11.88;;
50429;SDS011;36359;41.556;-8.418;2023-11-19T12:51:12;10.98;;;9.93;;
50429;SDS011;36359;41.556;-8.418;2023-11-19T12:53:50;9.93;;;8.88;;
50429;SDS011;36359;41.556;-8.418;2023-11-19T12:56:22;12.35;;;9.57;;
50429;SDS011;36359;41.556;-8.418;2023-11-19T12:58:48;7.45;;;6.47;;
50429;SDS011;36359;41.556;-8.418;2023-11-19T13:01:17;9.45;;;8.52;;
50429;SDS011;36359;41.556;-8.418;2023-11-19T13:03:44;11.38;;;10.20;;
50429;SDS011;36359;41.556;-8.418;2023-11-19T13:06:12;10.35;;;9.05;;
50429;SDS011;36359;41.556;-8.418;2023-11-19T13:08:44;10.57;;;9.30;;
50429;SDS011;36359;41.556;-8.418;2023-11-19T13:11:11;15.02;;;10.73;;
50429;SDS011;36359;41.556;-8.418;2023-11-19T13:16:30;10.95;;;9.85;;
50429;SDS011;36359;41.556;-8.418;2023-11-19T13:18:56;10.05;;;9.05;;
50429;SDS011;36359;41.556;-8.418;2023-11-19T13:21:22;8.98;;;8.07;;
50429;SDS011;36359;41.556;-8.418;2023-11-19T13:23:49;9.93;;;8.93;;
50429;SDS011;36359;41.556;-8.418;2023-11-19T13:26:15;10.07;;;8.05;;
50429;SDS011;36359;41.556;-8.418;2023-11-19T13:28:41;11.85;;;10.52;;
50429;SDS011;36359;41.556;-8.418;2023-11-19T13:31:06;25.23;;;20.95;;
50429;SDS011;36359;41.556;-8.418;2023-11-19T13:33:32;14.77;;;13.23;;
50429;SDS011;36359;41.556;-8.418;2023-11-19T13:35:59;14.25;;;11.77;;
50429;SDS011;36359;41.556;-8.418;2023-11-19T13:38:31;8.52;;;7.63;;
50429;SDS011;36359;41.556;-8.418;2023-11-19T13:40:58;14.18;;;11.75;;
50429;SDS011;36359;41.556;-8.418;2023-11-19T13:43:24;13.85;;;11.27;;
50429;SDS011;36359;41.556;-8.418;2023-11-19T13:45:50;13.02;;;9.50;;
50429;SDS011;36359;41.556;-8.418;2023-11-19T13:48:18;6.70;;;5.85;;
50429;SDS011;36359;41.556;-8.418;2023-11-19T13:50:44;16.02;;;13.13;;
50429;SDS011;36359;41.556;-8.418;2023-11-19T13:53:10;15.32;;;13.30;;
50429;SDS011;36359;41.556;-8.418;2023-11-19T13:55:37;15.27;;;13.40;;
50429;SDS011;36359;41.556;-8.418;2023-11-19T13:58:03;13.00;;;10.95;;
50429;SDS011;36359;41.556;-8.418;2023-11-19T14:00:29;16.85;;;12.60;;
50429;SDS011;36359;41.556;-8.418;2023-11-19T14:02:55;11.45;;;10.13;;
50429;SDS011;36359;41.556;-8.418;2023-11-19T14:05:21;9.93;;;7.90;;
50429;SDS011;36359;41.556;-8.418;2023-11-19T14:07:48;8.65;;;7.10;;
50429;SDS011;36359;41.556;-8.418;2023-11-19T14:10:14;9.77;;;8.07;;
50429;SDS011;36359;41.556;-8.418;2023-11-19T14:12:40;8.90;;;7.13;;
50429;SDS011;36359;41.556;-8.418;2023-11-19T14:15:07;7.97;;;6.43;;
50429;SDS011;36359;41.556;-8.418;2023-11-19T14:17:38;8.23;;;5.63;;
50429;SDS011;36359;41.556;-8.418;2023-11-19T14:20:04;7.40;;;5.38;;
50429;SDS011;36359;41.556;-8.418;2023-11-19T14:22:41;7.65;;;5.25;;
50429;SDS011;36359;41.556;-8.418;2023-11-19T14:25:11;7.45;;;4.70;;
50429;SDS011;36359;41.556;-8.418;2023-11-19T14:27:37;6.03;;;4.70;;
50429;SDS011;36359;41.556;-8.418;2023-11-19T14:30:04;5.30;;;3.95;;
50429;SDS011;36359;41.556;-8.418;2023-11-19T14:32:31;5.82;;;3.95;;
50429;SDS011;36359;41.556;-8.418;2023-11-19T14:34:57;7.50;;;4.85;;
50429;SDS011;36359;41.556;-8.418;2023-11-19T14:37:23;6.28;;;4.40;;
50429;SDS011;36359;41.556;-8.418;2023-11-19T14:39:48;7.38;;;4.82;;
50429;SDS011;36359;41.556;-8.418;2023-11-19T14:42:16;6.88;;;4.88;;
50429;SDS011;36359;41.556;-8.418;2023-11-19T14:44:42;5.93;;;4.35;;
50429;SDS011;36359;41.556;-8.418;2023-11-19T14:47:08;4.72;;;3.92;;
50429;SDS011;36359;41.556;-8.418;2023-11-19T14:49:34;5.75;;;4.72;;
50429;SDS011;36359;41.556;-8.418;2023-11-19T14:52:02;5.97;;;4.90;;
50429;SDS011;36359;41.556;-8.418;2023-11-19T14:54:29;6.82;;;5.05;;